sensor_id;sensor_type;location;lat;lon;timestamp;temperature;humidity
11132;DHT22;5620;53.570;9.718;2023-06-10T00:33:45;14.30;93.20
11132;DHT22;5620;53.570;9.718;2023-06-10T00:36:10;14.30;23.20
11132;DHT22;5620;53.570;9.718;2023-06-10T00:38:36;14.20;25.70
11132;DHT22;5620;53.570;9.718;2023-06-10T00:41:01;14.20;36.80
11132;DHT22;5620;53.570;9.718;2023-06-10T00:43:27;14.10;62.20
11132;DHT22;5620;53.570;9.718;2023-06-10T00:45:53;14.10;77.90
11132;DHT22;5620;53.570;9.718;2023-06-10T00:48:19;14.00;97.20
11132;DHT22;5620;53.570;9.718;2023-06-10T00:50:46;14.00;99.90
11132;DHT22;5620;53.570;9.718;2023-06-10T00:53:12;14.00;99.90
11132;DHT22;5620;53.570;9.718;2023-06-10T00:55:38;14.00;99.90
11132;DHT22;5620;53.570;9.718;2023-06-10T00:58:03;14.00;99.90
11132;DHT22;5620;53.570;9.718;2023-06-10T01:00:29;14.00;99.90
11132;DHT22;5620;53.570;9.718;2023-06-10T01:02:55;13.90;99.90
11132;DHT22;5620;53.570;9.718;2023-06-10T01:05:21;13.90;99.90
11132;DHT22;5620;53.570;9.718;2023-06-10T01:10:42;13.80;99.90
11132;DHT22;5620;53.570;9.718;2023-06-10T01:13:11;13.80;99.90
11132;DHT22;5620;53.570;9.718;2023-06-10T01:15:38;13.80;99.90
11132;DHT22;5620;53.570;9.718;2023-06-10T01:18:08;13.70;99.90
11132;DHT22;5620;53.570;9.718;2023-06-10T01:20:35;13.70;99.90
11132;DHT22;5620;53.570;9.718;2023-06-10T01:23:01;13.70;99.90
11132;DHT22;5620;53.570;9.718;2023-06-10T01:25:28;13.60;99.90
11132;DHT22;5620;53.570;9.718;2023-06-10T01:28:03;13.60;99.90
11132;DHT22;5620;53.570;9.718;2023-06-10T01:30:37;13.60;99.90
11132;DHT22;5620;53.570;9.718;2023-06-10T01:33:07;13.60;99.90
11132;DHT22;5620;53.570;9.718;2023-06-10T01:35:36;13.60;99.90
11132;DHT22;5620;53.570;9.718;2023-06-10T01:38:02;13.50;99.90
11132;DHT22;5620;53.570;9.718;2023-06-10T01:40:29;13.50;99.90
11132;DHT22;5620;53.570;9.718;2023-06-10T01:42:56;13.50;99.90
11132;DHT22;5620;53.570;9.718;2023-06-10T01:45:21;13.40;99.90
11132;DHT22;5620;53.570;9.718;2023-06-10T01:47:47;13.40;99.90
11132;DHT22;5620;53.570;9.718;2023-06-10T01:50:12;13.40;99.90
11132;DHT22;5620;53.570;9.718;2023-06-10T01:52:38;13.30;99.90
11132;DHT22;5620;53.570;9.718;2023-06-10T01:55:04;13.30;99.90
11132;DHT22;5620;53.570;9.718;2023-06-10T01:57:29;13.30;97.20
11132;DHT22;5620;53.570;9.718;2023-06-10T01:59:55;13.30;93.70
11132;DHT22;5620;53.570;9.718;2023-06-10T02:02:21;13.30;91.30
11132;DHT22;5620;53.570;9.718;2023-06-10T02:04:46;13.20;86.80
11132;DHT22;5620;53.570;9.718;2023-06-10T02:07:12;13.20;88.90
11132;DHT22;5620;53.570;9.718;2023-06-10T02:09:37;13.20;86.80
11132;DHT22;5620;53.570;9.718;2023-06-10T02:12:03;13.20;83.90
11132;DHT22;5620;53.570;9.718;2023-06-10T02:14:29;13.20;77.80
11132;DHT22;5620;53.570;9.718;2023-06-10T02:16:55;13.20;78.00
11132;DHT22;5620;53.570;9.718;2023-06-10T02:19:20;13.20;78.80
11132;DHT22;5620;53.570;9.718;2023-06-10T02:21:46;13.20;77.50
11132;DHT22;5620;53.570;9.718;2023-06-10T02:24:11;13.20;60.30
11132;DHT22;5620;53.570;9.718;2023-06-10T02:26:37;13.10;44.90
11132;DHT22;5620;53.570;9.718;2023-06-10T02:29:02;13.10;38.20
11132;DHT22;5620;53.570;9.718;2023-06-10T02:31:28;13.10;33.20
11132;DHT22;5620;53.570;9.718;2023-06-10T02:33:53;13.10;25.30
11132;DHT22;5620;53.570;9.718;2023-06-10T02:36:19;13.10;25.10
11132;DHT22;5620;53.570;9.718;2023-06-10T02:38:44;13.10;25.10
11132;DHT22;5620;53.570;9.718;2023-06-10T02:41:10;13.10;24.20
11132;DHT22;5620;53.570;9.718;2023-06-10T02:43:35;13.10;7.20
11132;DHT22;5620;53.570;9.718;2023-06-10T02:46:01;13.00;12.30
11132;DHT22;5620;53.570;9.718;2023-06-10T02:48:27;13.00;3.90
11132;DHT22;5620;53.570;9.718;2023-06-10T02:50:53;13.00;1.00
11132;DHT22;5620;53.570;9.718;2023-06-10T02:53:18;13.00;1.00
11132;DHT22;5620;53.570;9.718;2023-06-10T02:55:44;13.00;1.00
11132;DHT22;5620;53.570;9.718;2023-06-10T02:58:09;13.00;1.00
11132;DHT22;5620;53.570;9.718;2023-06-10T03:00:35;13.00;1.00
11132;DHT22;5620;53.570;9.718;2023-06-10T03:03:00;13.00;1.00
11132;DHT22;5620;53.570;9.718;2023-06-10T03:05:26;13.00;1.00
11132;DHT22;5620;53.570;9.718;2023-06-10T03:07:51;13.00;1.00
11132;DHT22;5620;53.570;9.718;2023-06-10T03:10:17;13.00;1.00
11132;DHT22;5620;53.570;9.718;2023-06-10T03:12:42;13.00;1.00
11132;DHT22;5620;53.570;9.718;2023-06-10T03:15:08;13.00;1.00
11132;DHT22;5620;53.570;9.718;2023-06-10T03:17:34;13.00;1.00
11132;DHT22;5620;53.570;9.718;2023-06-10T03:19:59;13.00;1.00
11132;DHT22;5620;53.570;9.718;2023-06-10T03:22:25;13.00;1.00
11132;DHT22;5620;53.570;9.718;2023-06-10T03:24:50;13.00;1.00
11132;DHT22;5620;53.570;9.718;2023-06-10T03:27:16;13.00;1.00
11132;DHT22;5620;53.570;9.718;2023-06-10T03:29:41;13.10;1.00
11132;DHT22;5620;53.570;9.718;2023-06-10T03:32:07;13.10;1.00
11132;DHT22;5620;53.570;9.718;2023-06-10T03:34:33;13.10;1.00
11132;DHT22;5620;53.570;9.718;2023-06-10T03:36:58;13.10;1.00
11132;DHT22;5620;53.570;9.718;2023-06-10T03:39:25;13.20;1.00
11132;DHT22;5620;53.570;9.718;2023-06-10T03:41:50;13.20;1.00
11132;DHT22;5620;53.570;9.718;2023-06-10T03:44:16;13.20;1.00
11132;DHT22;5620;53.570;9.718;2023-06-10T03:46:42;13.30;1.00
11132;DHT22;5620;53.570;9.718;2023-06-10T03:49:07;13.30;1.00
11132;DHT22;5620;53.570;9.718;2023-06-10T03:51:35;13.30;1.00
11132;DHT22;5620;53.570;9.718;2023-06-10T03:54:00;13.40;1.00
11132;DHT22;5620;53.570;9.718;2023-06-10T03:56:26;13.40;1.00
11132;DHT22;5620;53.570;9.718;2023-06-10T03:58:51;13.40;1.00
11132;DHT22;5620;53.570;9.718;2023-06-10T04:01:17;13.50;1.00
11132;DHT22;5620;53.570;9.718;2023-06-10T04:03:42;13.50;1.00
11132;DHT22;5620;53.570;9.718;2023-06-10T04:06:08;13.60;1.00
11132;DHT22;5620;53.570;9.718;2023-06-10T04:08:33;13.60;1.00
11132;DHT22;5620;53.570;9.718;2023-06-10T04:10:59;13.70;1.00
11132;DHT22;5620;53.570;9.718;2023-06-10T04:13:25;13.70;1.00
11132;DHT22;5620;53.570;9.718;2023-06-10T04:15:50;13.80;1.00
11132;DHT22;5620;53.570;9.718;2023-06-10T04:18:16;13.80;1.00
11132;DHT22;5620;53.570;9.718;2023-06-10T04:20:41;13.90;1.00
11132;DHT22;5620;53.570;9.718;2023-06-10T04:23:07;14.00;1.00
11132;DHT22;5620;53.570;9.718;2023-06-10T04:25:33;14.00;1.00
11132;DHT22;5620;53.570;9.718;2023-06-10T04:27:59;14.10;1.00
11132;DHT22;5620;53.570;9.718;2023-06-10T04:30:24;14.20;1.00
11132;DHT22;5620;53.570;9.718;2023-06-10T04:32:50;14.30;99.90
11132;DHT22;5620;53.570;9.718;2023-06-10T04:35:16;14.30;99.90
11132;DHT22;5620;53.570;9.718;2023-06-10T04:37:42;14.30;99.90
11132;DHT22;5620;53.570;9.718;2023-06-10T04:40:08;14.40;99.90
11132;DHT22;5620;53.570;9.718;2023-06-10T04:42:34;14.50;99.90
11132;DHT22;5620;53.570;9.718;2023-06-10T04:44:59;14.70;99.90
11132;DHT22;5620;53.570;9.718;2023-06-10T04:47:26;14.70;99.90
11132;DHT22;5620;53.570;9.718;2023-06-10T04:49:52;14.80;99.90
11132;DHT22;5620;53.570;9.718;2023-06-10T04:52:17;14.90;99.90
11132;DHT22;5620;53.570;9.718;2023-06-10T04:54:43;15.00;99.90
11132;DHT22;5620;53.570;9.718;2023-06-10T04:57:09;15.00;99.90
11132;DHT22;5620;53.570;9.718;2023-06-10T04:59:36;15.10;99.90
11132;DHT22;5620;53.570;9.718;2023-06-10T05:02:01;15.20;99.90
11132;DHT22;5620;53.570;9.718;2023-06-10T05:04:27;15.30;99.90
11132;DHT22;5620;53.570;9.718;2023-06-10T05:06:52;15.40;99.90
11132;DHT22;5620;53.570;9.718;2023-06-10T05:09:18;15.50;99.90
11132;DHT22;5620;53.570;9.718;2023-06-10T05:11:43;15.60;99.90
11132;DHT22;5620;53.570;9.718;2023-06-10T05:14:09;15.70;99.90
11132;DHT22;5620;53.570;9.718;2023-06-10T05:16:34;15.80;99.90
11132;DHT22;5620;53.570;9.718;2023-06-10T05:19:00;15.90;99.90
11132;DHT22;5620;53.570;9.718;2023-06-10T05:21:25;16.00;98.70
11132;DHT22;5620;53.570;9.718;2023-06-10T05:23:51;16.00;93.10
11132;DHT22;5620;53.570;9.718;2023-06-10T05:26:16;16.10;87.40
11132;DHT22;5620;53.570;9.718;2023-06-10T05:28:43;16.20;65.80
11132;DHT22;5620;53.570;9.718;2023-06-10T05:31:08;16.30;62.70
11132;DHT22;5620;53.570;9.718;2023-06-10T05:33:34;16.40;46.50
11132;DHT22;5620;53.570;9.718;2023-06-10T05:35:59;16.40;23.90
11132;DHT22;5620;53.570;9.718;2023-06-10T05:38:25;16.50;13.40
11132;DHT22;5620;53.570;9.718;2023-06-10T05:40:50;16.70;4.50
11132;DHT22;5620;53.570;9.718;2023-06-10T05:43:16;16.80;1.00
11132;DHT22;5620;53.570;9.718;2023-06-10T05:45:41;17.00;1.00
11132;DHT22;5620;53.570;9.718;2023-06-10T05:48:07;17.10;1.00
11132;DHT22;5620;53.570;9.718;2023-06-10T05:50:34;17.10;1.00
11132;DHT22;5620;53.570;9.718;2023-06-10T05:52:59;17.20;1.00
11132;DHT22;5620;53.570;9.718;2023-06-10T05:55:25;17.20;1.00
11132;DHT22;5620;53.570;9.718;2023-06-10T05:57:58;17.20;1.00
11132;DHT22;5620;53.570;9.718;2023-06-10T06:00:24;17.40;1.00
11132;DHT22;5620;53.570;9.718;2023-06-10T06:02:49;17.70;1.00
11132;DHT22;5620;53.570;9.718;2023-06-10T06:05:15;17.90;1.00
11132;DHT22;5620;53.570;9.718;2023-06-10T06:07:40;18.10;1.00
11132;DHT22;5620;53.570;9.718;2023-06-10T06:10:06;18.20;1.00
11132;DHT22;5620;53.570;9.718;2023-06-10T06:12:32;18.30;1.00
11132;DHT22;5620;53.570;9.718;2023-06-10T06:14:57;18.30;1.00
11132;DHT22;5620;53.570;9.718;2023-06-10T06:17:23;18.30;1.00
11132;DHT22;5620;53.570;9.718;2023-06-10T06:19:48;18.30;1.00
11132;DHT22;5620;53.570;9.718;2023-06-10T06:22:14;18.30;1.00
11132;DHT22;5620;53.570;9.718;2023-06-10T06:24:40;18.30;99.90
11132;DHT22;5620;53.570;9.718;2023-06-10T06:27:05;18.30;99.90
11132;DHT22;5620;53.570;9.718;2023-06-10T06:29:31;18.30;99.90
11132;DHT22;5620;53.570;9.718;2023-06-10T06:31:56;18.20;99.90
11132;DHT22;5620;53.570;9.718;2023-06-10T06:34:22;18.30;99.90
11132;DHT22;5620;53.570;9.718;2023-06-10T06:36:47;18.30;99.90
11132;DHT22;5620;53.570;9.718;2023-06-10T06:39:13;18.30;99.90
11132;DHT22;5620;53.570;9.718;2023-06-10T06:41:38;18.30;99.90
11132;DHT22;5620;53.570;9.718;2023-06-10T06:44:04;18.30;99.90
11132;DHT22;5620;53.570;9.718;2023-06-10T06:46:29;18.40;99.90
11132;DHT22;5620;53.570;9.718;2023-06-10T06:48:55;18.40;99.90
11132;DHT22;5620;53.570;9.718;2023-06-10T06:51:21;18.40;99.90
11132;DHT22;5620;53.570;9.718;2023-06-10T06:53:46;18.50;99.90
11132;DHT22;5620;53.570;9.718;2023-06-10T06:56:12;18.50;99.90
11132;DHT22;5620;53.570;9.718;2023-06-10T06:58:37;18.50;99.90
11132;DHT22;5620;53.570;9.718;2023-06-10T07:01:03;18.60;99.90
11132;DHT22;5620;53.570;9.718;2023-06-10T07:03:28;18.60;99.90
11132;DHT22;5620;53.570;9.718;2023-06-10T07:05:54;18.60;99.90
11132;DHT22;5620;53.570;9.718;2023-06-10T07:08:19;18.60;99.90
11132;DHT22;5620;53.570;9.718;2023-06-10T07:10:45;18.70;99.90
11132;DHT22;5620;53.570;9.718;2023-06-10T07:13:10;18.70;99.90
11132;DHT22;5620;53.570;9.718;2023-06-10T07:15:36;18.80;99.90
11132;DHT22;5620;53.570;9.718;2023-06-10T07:18:02;18.90;99.90
11132;DHT22;5620;53.570;9.718;2023-06-10T07:20:27;19.00;99.90
11132;DHT22;5620;53.570;9.718;2023-06-10T07:22:53;19.10;99.90
11132;DHT22;5620;53.570;9.718;2023-06-10T07:25:18;19.20;99.90
11132;DHT22;5620;53.570;9.718;2023-06-10T07:27:44;19.20;99.90
11132;DHT22;5620;53.570;9.718;2023-06-10T07:30:10;19.20;99.90
11132;DHT22;5620;53.570;9.718;2023-06-10T07:32:35;19.30;99.90
11132;DHT22;5620;53.570;9.718;2023-06-10T07:35:01;19.40;99.90
11132;DHT22;5620;53.570;9.718;2023-06-10T07:37:26;19.40;99.90
11132;DHT22;5620;53.570;9.718;2023-06-10T07:39:52;19.40;99.90
11132;DHT22;5620;53.570;9.718;2023-06-10T07:42:17;19.50;99.90
11132;DHT22;5620;53.570;9.718;2023-06-10T07:44:43;19.50;99.90
11132;DHT22;5620;53.570;9.718;2023-06-10T07:47:08;19.60;99.90
11132;DHT22;5620;53.570;9.718;2023-06-10T07:49:34;19.70;99.90
11132;DHT22;5620;53.570;9.718;2023-06-10T07:51:59;19.70;99.90
11132;DHT22;5620;53.570;9.718;2023-06-10T07:54:25;19.80;99.90
11132;DHT22;5620;53.570;9.718;2023-06-10T07:56:51;19.90;99.90
11132;DHT22;5620;53.570;9.718;2023-06-10T07:59:16;19.90;95.60
11132;DHT22;5620;53.570;9.718;2023-06-10T08:01:42;19.90;82.80
11132;DHT22;5620;53.570;9.718;2023-06-10T08:04:07;20.00;72.40
11132;DHT22;5620;53.570;9.718;2023-06-10T08:06:33;20.10;63.50
11132;DHT22;5620;53.570;9.718;2023-06-10T08:09:01;20.10;55.00
11132;DHT22;5620;53.570;9.718;2023-06-10T08:11:27;20.20;46.20
11132;DHT22;5620;53.570;9.718;2023-06-10T08:13:53;20.30;37.00
11132;DHT22;5620;53.570;9.718;2023-06-10T08:16:18;20.30;28.50
11132;DHT22;5620;53.570;9.718;2023-06-10T08:18:44;20.40;19.80
11132;DHT22;5620;53.570;9.718;2023-06-10T08:21:09;20.50;13.60
11132;DHT22;5620;53.570;9.718;2023-06-10T08:23:35;20.50;5.20
11132;DHT22;5620;53.570;9.718;2023-06-10T08:26:00;20.60;1.00
11132;DHT22;5620;53.570;9.718;2023-06-10T08:28:26;20.60;1.00
11132;DHT22;5620;53.570;9.718;2023-06-10T08:30:51;20.70;1.00
11132;DHT22;5620;53.570;9.718;2023-06-10T08:33:17;20.70;1.00
11132;DHT22;5620;53.570;9.718;2023-06-10T08:35:42;20.80;1.00
11132;DHT22;5620;53.570;9.718;2023-06-10T08:38:08;20.90;1.00
11132;DHT22;5620;53.570;9.718;2023-06-10T08:40:34;21.00;1.00
11132;DHT22;5620;53.570;9.718;2023-06-10T08:43:06;21.00;1.00
11132;DHT22;5620;53.570;9.718;2023-06-10T08:45:35;21.10;1.00
11132;DHT22;5620;53.570;9.718;2023-06-10T08:48:05;21.20;1.00
11132;DHT22;5620;53.570;9.718;2023-06-10T08:50:31;21.30;1.00
11132;DHT22;5620;53.570;9.718;2023-06-10T08:52:58;21.30;1.00
11132;DHT22;5620;53.570;9.718;2023-06-10T08:55:31;21.50;1.00
11132;DHT22;5620;53.570;9.718;2023-06-10T08:57:59;21.50;1.00
11132;DHT22;5620;53.570;9.718;2023-06-10T09:00:26;21.60;1.00
11132;DHT22;5620;53.570;9.718;2023-06-10T09:02:52;21.70;1.00
11132;DHT22;5620;53.570;9.718;2023-06-10T09:05:18;21.80;1.00
11132;DHT22;5620;53.570;9.718;2023-06-10T09:07:45;21.80;1.00
11132;DHT22;5620;53.570;9.718;2023-06-10T09:10:11;21.80;1.00
11132;DHT22;5620;53.570;9.718;2023-06-10T09:12:37;21.90;1.00
11132;DHT22;5620;53.570;9.718;2023-06-10T09:15:03;22.10;1.00
11132;DHT22;5620;53.570;9.718;2023-06-10T09:17:29;22.10;1.00
11132;DHT22;5620;53.570;9.718;2023-06-10T09:19:55;22.20;1.00
11132;DHT22;5620;53.570;9.718;2023-06-10T09:22:24;22.30;1.00
11132;DHT22;5620;53.570;9.718;2023-06-10T09:24:50;22.40;1.00
11132;DHT22;5620;53.570;9.718;2023-06-10T09:27:15;22.50;1.00
11132;DHT22;5620;53.570;9.718;2023-06-10T09:30:07;22.60;1.00
11132;DHT22;5620;53.570;9.718;2023-06-10T09:32:38;22.70;1.00
11132;DHT22;5620;53.570;9.718;2023-06-10T09:35:09;22.80;1.00
11132;DHT22;5620;53.570;9.718;2023-06-10T09:37:38;22.80;1.00
11132;DHT22;5620;53.570;9.718;2023-06-10T09:40:05;22.80;1.00
11132;DHT22;5620;53.570;9.718;2023-06-10T09:42:39;22.90;1.00
11132;DHT22;5620;53.570;9.718;2023-06-10T09:45:06;22.90;1.00
11132;DHT22;5620;53.570;9.718;2023-06-10T09:47:31;23.00;1.00
11132;DHT22;5620;53.570;9.718;2023-06-10T09:49:57;23.10;1.00
11132;DHT22;5620;53.570;9.718;2023-06-10T09:54:48;23.40;1.00
11132;DHT22;5620;53.570;9.718;2023-06-10T09:57:16;23.40;1.00
11132;DHT22;5620;53.570;9.718;2023-06-10T09:59:42;23.50;1.00
11132;DHT22;5620;53.570;9.718;2023-06-10T10:02:16;23.60;1.00
11132;DHT22;5620;53.570;9.718;2023-06-10T10:04:43;23.80;1.00
11132;DHT22;5620;53.570;9.718;2023-06-10T10:07:09;23.90;1.00
11132;DHT22;5620;53.570;9.718;2023-06-10T10:09:36;24.00;1.00
11132;DHT22;5620;53.570;9.718;2023-06-10T10:12:03;24.20;1.00
11132;DHT22;5620;53.570;9.718;2023-06-10T10:14:35;24.50;1.00
11132;DHT22;5620;53.570;9.718;2023-06-10T10:17:01;24.70;1.00
11132;DHT22;5620;53.570;9.718;2023-06-10T10:19:31;24.90;1.00
11132;DHT22;5620;53.570;9.718;2023-06-10T10:22:10;25.10;1.00
11132;DHT22;5620;53.570;9.718;2023-06-10T10:24:46;25.40;1.00
11132;DHT22;5620;53.570;9.718;2023-06-10T10:27:20;25.70;1.00
11132;DHT22;5620;53.570;9.718;2023-06-10T10:29:48;26.00;1.00
11132;DHT22;5620;53.570;9.718;2023-06-10T10:32:18;26.30;1.00
11132;DHT22;5620;53.570;9.718;2023-06-10T10:37:32;26.90;1.00
11132;DHT22;5620;53.570;9.718;2023-06-10T10:39:58;27.20;1.00
11132;DHT22;5620;53.570;9.718;2023-06-10T10:42:25;27.40;1.00
11132;DHT22;5620;53.570;9.718;2023-06-10T10:44:51;27.60;1.00
11132;DHT22;5620;53.570;9.718;2023-06-10T10:47:21;27.80;1.00
11132;DHT22;5620;53.570;9.718;2023-06-10T10:49:50;28.00;1.00
11132;DHT22;5620;53.570;9.718;2023-06-10T10:52:16;28.30;1.00
11132;DHT22;5620;53.570;9.718;2023-06-10T10:54:53;28.50;1.00
11132;DHT22;5620;53.570;9.718;2023-06-10T10:57:23;28.70;1.00
11132;DHT22;5620;53.570;9.718;2023-06-10T11:02:46;29.20;1.00
11132;DHT22;5620;53.570;9.718;2023-06-10T11:05:15;29.80;1.00
11132;DHT22;5620;53.570;9.718;2023-06-10T11:07:52;30.80;1.00
11132;DHT22;5620;53.570;9.718;2023-06-10T11:10:38;32.10;1.00
11132;DHT22;5620;53.570;9.718;2023-06-10T11:13:14;33.90;1.00
11132;DHT22;5620;53.570;9.718;2023-06-10T11:15:50;35.80;1.00
11132;DHT22;5620;53.570;9.718;2023-06-10T11:18:25;37.80;1.00
11132;DHT22;5620;53.570;9.718;2023-06-10T11:31:23;44.40;99.90
11132;DHT22;5620;53.570;9.718;2023-06-10T11:33:53;45.10;99.90
11132;DHT22;5620;53.570;9.718;2023-06-10T11:36:19;45.60;99.90
11132;DHT22;5620;53.570;9.718;2023-06-10T11:38:45;46.10;99.90
11132;DHT22;5620;53.570;9.718;2023-06-10T11:41:11;46.80;99.90
11132;DHT22;5620;53.570;9.718;2023-06-10T11:43:42;47.20;99.90
11132;DHT22;5620;53.570;9.718;2023-06-10T11:46:08;47.40;99.90
11132;DHT22;5620;53.570;9.718;2023-06-10T11:48:34;47.50;99.90
11132;DHT22;5620;53.570;9.718;2023-06-10T11:50:59;47.70;99.90
11132;DHT22;5620;53.570;9.718;2023-06-10T11:53:25;48.10;99.90
11132;DHT22;5620;53.570;9.718;2023-06-10T11:55:51;48.40;99.90
11132;DHT22;5620;53.570;9.718;2023-06-10T11:58:21;48.80;99.90
11132;DHT22;5620;53.570;9.718;2023-06-10T12:00:54;49.30;99.90
11132;DHT22;5620;53.570;9.718;2023-06-10T12:03:21;49.50;99.90
11132;DHT22;5620;53.570;9.718;2023-06-10T12:06:00;49.50;99.90
11132;DHT22;5620;53.570;9.718;2023-06-10T12:08:27;49.80;99.90
11132;DHT22;5620;53.570;9.718;2023-06-10T12:10:53;50.10;99.90
11132;DHT22;5620;53.570;9.718;2023-06-10T12:13:19;50.60;99.90
11132;DHT22;5620;53.570;9.718;2023-06-10T12:15:46;50.80;99.90
11132;DHT22;5620;53.570;9.718;2023-06-10T12:18:22;50.70;99.90
11132;DHT22;5620;53.570;9.718;2023-06-10T12:20:49;51.20;99.90
11132;DHT22;5620;53.570;9.718;2023-06-10T12:23:15;50.90;99.90
11132;DHT22;5620;53.570;9.718;2023-06-10T12:25:54;51.10;99.90
11132;DHT22;5620;53.570;9.718;2023-06-10T12:28:24;50.90;99.90
11132;DHT22;5620;53.570;9.718;2023-06-10T12:30:50;51.00;99.90
11132;DHT22;5620;53.570;9.718;2023-06-10T12:33:16;51.10;99.90
11132;DHT22;5620;53.570;9.718;2023-06-10T12:35:47;51.20;99.90
11132;DHT22;5620;53.570;9.718;2023-06-10T12:38:13;51.50;99.90
11132;DHT22;5620;53.570;9.718;2023-06-10T12:40:39;52.10;99.90
11132;DHT22;5620;53.570;9.718;2023-06-10T12:43:06;52.20;99.90
11132;DHT22;5620;53.570;9.718;2023-06-10T12:45:32;52.40;99.90
11132;DHT22;5620;53.570;9.718;2023-06-10T12:50:41;53.30;99.90
11132;DHT22;5620;53.570;9.718;2023-06-10T12:53:07;53.40;99.90
11132;DHT22;5620;53.570;9.718;2023-06-10T12:55:33;53.40;99.90
11132;DHT22;5620;53.570;9.718;2023-06-10T12:58:00;53.70;99.90
11132;DHT22;5620;53.570;9.718;2023-06-10T13:00:25;53.70;99.90
11132;DHT22;5620;53.570;9.718;2023-06-10T13:02:54;54.20;99.90
11132;DHT22;5620;53.570;9.718;2023-06-10T13:05:45;54.70;99.90
11132;DHT22;5620;53.570;9.718;2023-06-10T13:08:10;54.60;99.90
11132;DHT22;5620;53.570;9.718;2023-06-10T13:10:36;54.00;99.90
11132;DHT22;5620;53.570;9.718;2023-06-10T13:13:03;53.80;99.90
11132;DHT22;5620;53.570;9.718;2023-06-10T13:15:29;54.10;99.90
11132;DHT22;5620;53.570;9.718;2023-06-10T13:17:54;54.50;99.90
11132;DHT22;5620;53.570;9.718;2023-06-10T13:20:20;54.70;99.90
11132;DHT22;5620;53.570;9.718;2023-06-10T13:22:46;54.90;99.90
11132;DHT22;5620;53.570;9.718;2023-06-10T13:25:11;55.30;99.90
11132;DHT22;5620;53.570;9.718;2023-06-10T13:27:37;55.70;99.90
11132;DHT22;5620;53.570;9.718;2023-06-10T13:30:03;55.80;99.90
11132;DHT22;5620;53.570;9.718;2023-06-10T13:32:28;55.80;99.90
11132;DHT22;5620;53.570;9.718;2023-06-10T13:34:54;55.50;99.90
11132;DHT22;5620;53.570;9.718;2023-06-10T13:37:19;55.80;99.90
11132;DHT22;5620;53.570;9.718;2023-06-10T13:39:45;56.00;99.90
11132;DHT22;5620;53.570;9.718;2023-06-10T13:42:11;56.00;99.90
11132;DHT22;5620;53.570;9.718;2023-06-10T13:44:37;56.10;99.90
11132;DHT22;5620;53.570;9.718;2023-06-10T13:47:03;56.10;99.90
11132;DHT22;5620;53.570;9.718;2023-06-10T13:49:29;56.30;99.90
11132;DHT22;5620;53.570;9.718;2023-06-10T13:51:54;56.50;99.90
11132;DHT22;5620;53.570;9.718;2023-06-10T13:54:20;56.70;99.90
11132;DHT22;5620;53.570;9.718;2023-06-10T13:56:45;56.50;99.90
11132;DHT22;5620;53.570;9.718;2023-06-10T13:59:11;56.50;99.90
11132;DHT22;5620;53.570;9.718;2023-06-10T14:01:36;56.60;99.90
11132;DHT22;5620;53.570;9.718;2023-06-10T14:04:02;56.80;99.90
11132;DHT22;5620;53.570;9.718;2023-06-10T14:06:28;56.80;99.90
11132;DHT22;5620;53.570;9.718;2023-06-10T14:08:54;56.70;99.90
11132;DHT22;5620;53.570;9.718;2023-06-10T14:11:19;56.50;99.90
11132;DHT22;5620;53.570;9.718;2023-06-10T14:13:45;56.70;99.90
11132;DHT22;5620;53.570;9.718;2023-06-10T14:16:10;56.90;99.90
11132;DHT22;5620;53.570;9.718;2023-06-10T14:18:36;57.00;99.90
11132;DHT22;5620;53.570;9.718;2023-06-10T14:21:01;57.70;99.90
11132;DHT22;5620;53.570;9.718;2023-06-10T14:23:27;57.90;99.90
11132;DHT22;5620;53.570;9.718;2023-06-10T14:25:52;58.10;99.90
11132;DHT22;5620;53.570;9.718;2023-06-10T14:28:18;58.20;99.90
11132;DHT22;5620;53.570;9.718;2023-06-10T14:30:43;56.80;99.90
11132;DHT22;5620;53.570;9.718;2023-06-10T14:33:09;56.00;99.90
11132;DHT22;5620;53.570;9.718;2023-06-10T14:35:35;56.30;99.90
11132;DHT22;5620;53.570;9.718;2023-06-10T14:38:00;56.70;99.90
11132;DHT22;5620;53.570;9.718;2023-06-10T14:40:26;57.10;99.90
11132;DHT22;5620;53.570;9.718;2023-06-10T14:42:51;57.50;99.90
11132;DHT22;5620;53.570;9.718;2023-06-10T14:45:17;57.90;99.90
11132;DHT22;5620;53.570;9.718;2023-06-10T14:47:42;57.90;99.90
11132;DHT22;5620;53.570;9.718;2023-06-10T14:50:08;57.70;99.90
11132;DHT22;5620;53.570;9.718;2023-06-10T14:52:34;57.10;99.90
11132;DHT22;5620;53.570;9.718;2023-06-10T14:54:59;56.80;99.90
11132;DHT22;5620;53.570;9.718;2023-06-10T14:57:25;56.80;99.90
11132;DHT22;5620;53.570;9.718;2023-06-10T14:59:50;56.80;99.90
11132;DHT22;5620;53.570;9.718;2023-06-10T15:02:16;56.40;99.90
11132;DHT22;5620;53.570;9.718;2023-06-10T15:04:41;56.10;99.90
11132;DHT22;5620;53.570;9.718;2023-06-10T15:07:07;56.10;99.90
11132;DHT22;5620;53.570;9.718;2023-06-10T15:09:32;56.20;99.90
11132;DHT22;5620;53.570;9.718;2023-06-10T15:11:58;56.60;99.90
11132;DHT22;5620;53.570;9.718;2023-06-10T15:14:24;56.70;99.90
11132;DHT22;5620;53.570;9.718;2023-06-10T15:16:49;57.00;99.90
11132;DHT22;5620;53.570;9.718;2023-06-10T15:19:15;57.20;99.90
11132;DHT22;5620;53.570;9.718;2023-06-10T15:21:40;57.30;99.90
11132;DHT22;5620;53.570;9.718;2023-06-10T15:24:06;57.30;99.90
11132;DHT22;5620;53.570;9.718;2023-06-10T15:26:32;57.30;99.90
11132;DHT22;5620;53.570;9.718;2023-06-10T15:28:57;57.00;99.90
11132;DHT22;5620;53.570;9.718;2023-06-10T15:31:23;56.50;99.90
11132;DHT22;5620;53.570;9.718;2023-06-10T15:33:48;56.80;99.90
11132;DHT22;5620;53.570;9.718;2023-06-10T15:36:14;56.90;99.90
11132;DHT22;5620;53.570;9.718;2023-06-10T15:38:40;56.50;99.90
11132;DHT22;5620;53.570;9.718;2023-06-10T15:41:05;56.40;99.90
11132;DHT22;5620;53.570;9.718;2023-06-10T15:43:31;56.50;99.90
11132;DHT22;5620;53.570;9.718;2023-06-10T15:45:56;56.50;99.90
11132;DHT22;5620;53.570;9.718;2023-06-10T15:48:22;56.70;99.90
11132;DHT22;5620;53.570;9.718;2023-06-10T15:50:47;56.70;99.90
11132;DHT22;5620;53.570;9.718;2023-06-10T15:53:13;56.30;99.90
11132;DHT22;5620;53.570;9.718;2023-06-10T15:55:38;56.20;99.90
11132;DHT22;5620;53.570;9.718;2023-06-10T15:58:04;56.20;99.90
11132;DHT22;5620;53.570;9.718;2023-06-10T16:00:30;56.20;99.90
11132;DHT22;5620;53.570;9.718;2023-06-10T16:02:55;56.30;99.90
11132;DHT22;5620;53.570;9.718;2023-06-10T16:05:21;56.30;99.90
11132;DHT22;5620;53.570;9.718;2023-06-10T16:07:46;56.00;99.90
11132;DHT22;5620;53.570;9.718;2023-06-10T16:10:12;55.50;99.90
11132;DHT22;5620;53.570;9.718;2023-06-10T16:12:37;55.40;99.90
11132;DHT22;5620;53.570;9.718;2023-06-10T16:15:03;55.40;99.90
11132;DHT22;5620;53.570;9.718;2023-06-10T16:17:29;54.80;99.90
11132;DHT22;5620;53.570;9.718;2023-06-10T16:19:54;54.60;99.90
11132;DHT22;5620;53.570;9.718;2023-06-10T16:22:20;54.00;99.90
11132;DHT22;5620;53.570;9.718;2023-06-10T16:24:45;53.80;99.90
11132;DHT22;5620;53.570;9.718;2023-06-10T16:27:11;53.30;99.90
11132;DHT22;5620;53.570;9.718;2023-06-10T16:29:36;53.50;99.90
11132;DHT22;5620;53.570;9.718;2023-06-10T16:32:02;53.60;99.90
11132;DHT22;5620;53.570;9.718;2023-06-10T16:34:28;53.60;99.90
11132;DHT22;5620;53.570;9.718;2023-06-10T16:36:53;53.60;99.90
11132;DHT22;5620;53.570;9.718;2023-06-10T16:39:19;53.70;99.90
11132;DHT22;5620;53.570;9.718;2023-06-10T16:41:44;53.40;99.90
11132;DHT22;5620;53.570;9.718;2023-06-10T16:44:10;53.60;99.90